Time;durP1;ratioP1;P1;durP2;ratioP2;P2;SDS_P1;SDS_P2;PMS_P1;PMS_P2;Temp;Humidity;BMP_temperature;BMP_pressure;BME280_temperature;BME280_humidity;BME280_pressure;Samples;Min_cycle;Max_cycle;Signal;HPM_P1;HPM_P2
2023/04/02 00:00:56;;;;;;;2.30;1.37;;;1.80;1.00;;;;;;5036564;28;20448;-49
2023/04/02 00:03:22;;;;;;;5.83;1.87;;;1.80;1.00;;;;;;5035700;28;20481;-50
2023/04/02 00:05:50;;;;;;;4.93;2.00;;;1.80;1.00;;;;;;5035910;28;20878;-49
2023/04/02 00:08:39;;;;;;;6.80;1.90;;;1.70;1.00;;;;;;5036063;28;20194;-49
2023/04/02 00:11:06;;;;;;;4.73;1.80;;;1.70;1.00;;;;;;5035968;28;20401;-49
2023/04/02 00:13:48;;;;;;;3.30;1.57;;;1.70;1.00;;;;;;5035797;28;20772;-49
2023/04/02 00:16:23;;;;;;;3.80;1.77;;;1.70;1.00;;;;;;5035864;28;20399;-50
2023/04/02 00:18:52;;;;;;;5.47;1.43;;;1.70;1.00;;;;;;5035730;28;20410;-50
2023/04/02 00:21:23;;;;;;;3.43;1.40;;;1.60;1.00;;;;;;5035405;28;20429;-49
2023/04/02 00:23:49;;;;;;;7.30;1.60;;;1.60;1.00;;;;;;5035664;28;20444;-50
2023/04/02 00:26:35;;;;;;;4.33;1.70;;;1.60;1.00;;;;;;5035214;28;21176;-49
2023/04/02 00:29:03;;;;;;;5.60;1.60;;;1.60;1.00;;;;;;5035434;28;20757;-50
2023/04/02 00:31:30;;;;;;;3.27;1.33;;;1.60;1.00;;;;;;5035307;28;20882;-52
2023/04/02 00:33:58;;;;;;;3.90;1.70;;;1.60;1.00;;;;;;5035768;28;20501;-50
2023/04/02 00:36:28;;;;;;;6.20;1.67;;;1.60;1.00;;;;;;5035242;28;20486;-49
2023/04/02 00:38:57;;;;;;;5.10;1.60;;;1.50;1.00;;;;;;5035116;28;20847;-49
2023/04/02 00:41:28;;;;;;;3.50;1.70;;;1.50;1.00;;;;;;5035454;28;20417;-50
2023/04/02 00:43:56;;;;;;;10.53;2.07;;;1.60;1.00;;;;;;5035297;28;20405;-49
2023/04/02 00:46:28;;;;;;;2.40;1.67;;;1.60;1.00;;;;;;5035496;28;20464;-49
2023/04/02 00:49:13;;;;;;;4.20;1.40;;;1.60;1.00;;;;;;5035479;28;20418;-49
2023/04/02 00:51:46;;;;;;;3.73;1.87;;;1.60;1.00;;;;;;5034931;28;20459;-50
2023/04/02 00:54:14;;;;;;;6.80;1.90;;;1.70;1.00;;;;;;5034981;28;20438;-50
2023/04/02 00:56:43;;;;;;;5.33;1.70;;;1.70;1.00;;;;;;5035112;28;20453;-50
2023/04/02 00:59:27;;;;;;;3.80;1.90;;;1.80;1.00;;;;;;5034819;28;20922;-50
2023/04/02 01:02:21;;;;;;;4.70;1.70;;;1.70;1.00;;;;;;5034938;28;20429;-50
2023/04/02 01:04:59;;;;;;;3.07;1.33;;;1.60;1.00;;;;;;5034989;28;20460;-50
2023/04/02 01:07:41;;;;;;;1.50;1.40;;;1.70;1.00;;;;;;5034659;28;20903;-49
2023/04/02 01:10:36;;;;;;;5.57;1.70;;;1.60;1.00;;;;;;5034965;28;20936;-49
2023/04/02 01:13:39;;;;;;;5.97;2.10;;;1.60;1.00;;;;;;5034447;28;20909;-49
2023/04/02 01:16:28;;;;;;;3.57;1.50;;;1.60;1.00;;;;;;5033305;28;20455;-49
2023/04/02 01:19:07;;;;;;;6.13;1.53;;;1.60;1.00;;;;;;5034566;28;20413;-49
2023/04/02 01:21:36;;;;;;;5.90;1.50;;;1.60;1.00;;;;;;5034265;28;20742;-50
2023/04/02 01:24:08;;;;;;;6.43;1.60;;;1.70;1.00;;;;;;5034608;28;21002;-50
2023/04/02 01:26:51;;;;;;;5.60;1.60;;;1.70;1.00;;;;;;5034744;28;20435;-50
2023/04/02 01:29:23;;;;;;;2.80;1.37;;;1.70;1.00;;;;;;5034507;28;20426;-49
2023/04/02 01:31:51;;;;;;;4.67;1.63;;;1.80;1.00;;;;;;5034572;28;20441;-50
2023/04/02 01:34:20;;;;;;;7.33;1.50;;;1.80;1.00;;;;;;5033926;28;20972;-50
2023/04/02 01:37:00;;;;;;;2.93;1.70;;;1.80;1.00;;;;;;5033953;28;20906;-51
2023/04/02 01:39:29;;;;;;;3.77;1.50;;;1.80;1.00;;;;;;5034173;28;20430;-50
2023/04/02 01:42:19;;;;;;;5.27;1.30;;;1.80;1.00;;;;;;5034128;28;20438;-50
2023/04/02 01:45:01;;;;;;;5.60;1.20;;;1.80;1.00;;;;;;5033724;28;21023;-49
2023/04/02 01:47:28;;;;;;;4.20;1.40;;;1.80;1.00;;;;;;5034125;28;20408;-51
2023/04/02 01:50:16;;;;;;;3.90;1.50;;;1.80;1.00;;;;;;5034123;28;21193;-50
2023/04/02 01:52:43;;;;;;;4.40;1.70;;;1.90;1.00;;;;;;5034301;28;20416;-50
2023/04/02 01:55:12;;;;;;;2.90;1.67;;;1.90;1.00;;;;;;5033974;28;20428;-50
2023/04/02 01:57:46;;;;;;;7.23;1.57;;;1.80;1.00;;;;;;5033908;28;20931;-49
2023/04/02 02:00:15;;;;;;;3.07;1.30;;;1.80;1.00;;;;;;5034134;28;20524;-50
2023/04/02 02:02:45;;;;;;;11.83;1.20;;;1.80;1.00;;;;;;5033964;28;20414;-50
2023/04/02 02:05:16;;;;;;;6.20;1.60;;;1.90;1.00;;;;;;5034272;28;20466;-50
2023/04/02 02:07:42;;;;;;;10.37;1.73;;;1.80;1.00;;;;;;5033380;28;20431;-49
2023/04/02 02:10:25;;;;;;;5.07;1.90;;;1.80;1.00;;;;;;5033602;28;20918;-49
2023/04/02 02:12:51;;;;;;;4.00;1.67;;;1.80;1.00;;;;;;5033694;28;20422;-49
2023/04/02 02:15:20;;;;;;;5.23;1.53;;;1.70;1.00;;;;;;5034156;28;20422;-50
2023/04/02 02:17:47;;;;;;;4.10;1.53;;;1.70;1.00;;;;;;5033341;28;20673;-51
2023/04/02 02:20:13;;;;;;;5.43;1.60;;;1.60;1.00;;;;;;5033364;28;20495;-50
2023/04/02 02:22:49;;;;;;;7.03;2.00;;;1.70;1.00;;;;;;5033463;28;20456;-50
2023/04/02 02:25:24;;;;;;;5.73;1.53;;;1.60;1.00;;;;;;5033525;28;20213;-51
2023/04/02 02:28:22;;;;;;;3.70;2.10;;;1.60;1.00;;;;;;5033625;28;20402;-50
2023/04/02 02:30:52;;;;;;;3.60;1.40;;;1.70;1.00;;;;;;5033773;28;20441;-50
2023/04/02 02:33:27;;;;;;;9.23;2.07;;;1.60;1.00;;;;;;5033227;28;20422;-50
2023/04/02 02:36:26;;;;;;;8.87;1.83;;;1.60;1.00;;;;;;5033182;28;20414;-50
2023/04/02 02:39:02;;;;;;;7.60;1.67;;;1.60;1.00;;;;;;5033246;28;20489;-51
2023/04/02 02:41:36;;;;;;;8.53;1.80;;;1.60;1.00;;;;;;5033212;28;20481;-51
2023/04/02 02:44:21;;;;;;;4.70;2.00;;;1.50;1.00;;;;;;5033416;28;20470;-51
2023/04/02 02:46:54;;;;;;;3.27;1.50;;;1.50;1.00;;;;;;5033631;28;20432;-51
2023/04/02 02:49:42;;;;;;;12.47;2.00;;;1.50;1.00;;;;;;5033230;28;20914;-51
2023/04/02 02:52:07;;;;;;;3.30;1.07;;;1.40;1.00;;;;;;5033447;28;20414;-51
2023/04/02 02:54:35;;;;;;;6.77;1.67;;;1.40;1.00;;;;;;5033172;28;20416;-50
2023/04/02 02:57:06;;;;;;;5.77;1.57;;;1.30;1.00;;;;;;5033341;28;20644;-51
2023/04/02 02:59:32;;;;;;;2.80;1.27;;;1.30;1.00;;;;;;5033257;28;20405;-50
2023/04/02 03:02:01;;;;;;;4.37;1.87;;;1.20;1.00;;;;;;5033516;28;20418;-50
2023/04/02 03:04:29;;;;;;;9.00;1.90;;;1.20;1.00;;;;;;5032881;28;20511;-50
2023/04/02 03:06:56;;;;;;;2.07;1.30;;;1.20;1.00;;;;;;5033461;28;20849;-50
2023/04/02 03:09:30;;;;;;;7.30;1.63;;;1.30;1.00;;;;;;5033478;28;20422;-50
2023/04/02 03:12:27;;;;;;;2.70;1.30;;;1.30;1.00;;;;;;5033035;28;20405;-50
2023/04/02 03:15:10;;;;;;;3.00;1.40;;;1.20;1.00;;;;;;5032770;28;20874;-50
2023/04/02 03:17:44;;;;;;;2.50;1.40;;;1.10;1.00;;;;;;5033395;28;20417;-50
2023/04/02 03:20:50;;;;;;;7.47;1.70;;;1.10;1.00;;;;;;5033391;28;20430;-50
2023/04/02 03:23:27;;;;;;;3.57;1.40;;;1.10;1.00;;;;;;5033220;28;20411;-50
2023/04/02 03:26:18;;;;;;;7.70;1.37;;;1.00;1.00;;;;;;5033045;28;20467;-51
2023/04/02 03:28:52;;;;;;;2.73;1.23;;;1.00;1.00;;;;;;5033041;28;20401;-50
2023/04/02 03:31:31;;;;;;;5.27;1.80;;;1.00;1.00;;;;;;5033023;28;20423;-50
2023/04/02 03:34:17;;;;;;;5.10;1.60;;;1.00;1.00;;;;;;5032876;28;20451;-50
2023/04/02 03:36:55;;;;;;;3.97;1.80;;;1.10;1.00;;;;;;5032913;28;20482;-51
2023/04/02 03:39:32;;;;;;;5.63;1.73;;;1.10;1.00;;;;;;5033109;28;20424;-50
2023/04/02 03:42:15;;;;;;;5.10;1.60;;;1.00;1.00;;;;;;5033283;28;20405;-50
2023/04/02 03:44:52;;;;;;;6.03;1.70;;;1.00;5.80;;;;;;5032258;28;20965;-50
2023/04/02 03:47:36;;;;;;;4.10;1.33;;;1.00;8.40;;;;;;5036657;28;20403;-50
2023/04/02 03:50:36;;;;;;;3.83;1.70;;;1.10;14.60;;;;;;5036751;28;20414;-52
2023/04/02 03:53:03;;;;;;;2.40;1.40;;;1.10;13.90;;;;;;5035772;28;20435;-50
2023/04/02 03:55:32;;;;;;;3.53;1.40;;;1.10;14.40;;;;;;5036775;28;20414;-50
2023/04/02 03:58:19;;;;;;;3.37;1.63;;;1.10;17.20;;;;;;5036286;28;20426;-50
2023/04/02 04:00:56;;;;;;;2.90;1.40;;;1.10;18.60;;;;;;5036424;28;20406;-50
2023/04/02 04:03:42;;;;;;;9.40;1.90;;;1.10;20.60;;;;;;5036444;28;20409;-50
2023/04/02 04:06:23;;;;;;;5.47;1.50;;;1.20;18.60;;;;;;5036106;28;20466;-50
2023/04/02 04:08:54;;;;;;;6.10;1.57;;;1.10;24.70;;;;;;5036136;28;20782;-50
2023/04/02 04:11:27;;;;;;;3.10;1.40;;;1.20;10.90;;;;;;5035937;28;20407;-50
2023/04/02 04:14:11;;;;;;;7.20;1.77;;;1.30;1.60;;;;;;5035588;28;20414;-50
2023/04/02 04:17:22;;;;;;;12.73;1.60;;;1.30;1.00;;;;;;5036000;28;20409;-50
2023/04/02 04:20:20;;;;;;;14.63;1.73;;;1.30;1.00;;;;;;5036005;28;20402;-50
2023/04/02 04:22:48;;;;;;;4.90;1.90;;;1.30;1.00;;;;;;5031142;28;20467;-50
2023/04/02 04:25:28;;;;;;;2.87;1.30;;;1.30;1.00;;;;;;5035649;28;20551;-50
2023/04/02 04:28:26;;;;;;;6.50;1.43;;;1.30;1.00;;;;;;5035558;28;20414;-50
2023/04/02 04:31:08;;;;;;;2.00;1.20;;;1.20;1.00;;;;;;5035597;28;20402;-50
2023/04/02 04:33:41;;;;;;;2.60;1.30;;;1.20;1.00;;;;;;5035487;28;20434;-50
2023/04/02 04:36:28;;;;;;;3.57;1.33;;;1.20;1.00;;;;;;5035566;28;20786;-50
2023/04/02 04:39:04;;;;;;;7.40;1.37;;;1.20;1.00;;;;;;5035877;28;20411;-50
2023/04/02 04:41:36;;;;;;;2.40;1.50;;;1.20;1.00;;;;;;5035350;28;20412;-50
2023/04/02 04:44:24;;;;;;;4.00;1.50;;;1.10;1.00;;;;;;5034640;28;20473;-50
2023/04/02 04:47:29;;;;;;;8.67;1.57;;;1.10;1.00;;;;;;5034679;28;20418;-50
2023/04/02 04:50:38;;;;;;;4.23;1.80;;;1.20;1.00;;;;;;5034169;28;20471;-51
2023/04/02 04:53:07;;;;;;;2.90;1.37;;;1.20;1.00;;;;;;5023512;28;20830;-50
2023/04/02 04:55:42;;;;;;;4.50;1.30;;;1.20;1.00;;;;;;5034346;28;20429;-50
2023/04/02 04:58:23;;;;;;;2.13;1.60;;;1.20;1.00;;;;;;5033203;28;20429;-50
2023/04/02 05:01:24;;;;;;;4.90;1.60;;;1.20;1.00;;;;;;5034184;28;20417;-50
2023/04/02 05:03:58;;;;;;;4.73;1.40;;;1.20;1.00;;;;;;5033422;28;20437;-51
2023/04/02 05:06:50;;;;;;;1.50;1.30;;;1.20;7.50;;;;;;5034196;28;20461;-51
2023/04/02 05:09:23;;;;;;;3.43;1.70;;;1.30;17.30;;;;;;5033792;28;21114;-50
2023/04/02 05:12:14;;;;;;;4.73;2.07;;;1.30;17.20;;;;;;5034208;28;20413;-50
2023/04/02 05:15:12;;;;;;;3.40;1.10;;;1.40;16.80;;;;;;5033517;28;20437;-50
2023/04/02 05:18:12;;;;;;;11.23;1.60;;;1.50;14.10;;;;;;5030567;28;20472;-50
2023/04/02 05:21:12;;;;;;;4.30;1.30;;;1.60;5.60;;;;;;5033874;28;20497;-50
2023/04/02 05:23:57;;;;;;;9.70;2.40;;;1.70;3.40;;;;;;5025212;28;20438;-50
2023/04/02 05:26:36;;;;;;;5.87;1.67;;;1.70;1.00;;;;;;5033801;28;20953;-51
2023/04/02 05:29:11;;;;;;;6.13;1.40;;;1.80;1.00;;;;;;5033437;28;20445;-50
2023/04/02 05:31:45;;;;;;;5.87;1.70;;;1.90;1.00;;;;;;5033691;28;20404;-50
2023/04/02 05:34:12;;;;;;;2.10;1.07;;;2.00;1.00;;;;;;5033794;28;20407;-51
2023/04/02 05:36:38;;;;;;;5.83;1.60;;;2.10;1.00;;;;;;5033482;28;20424;-51
2023/04/02 05:39:08;;;;;;;2.33;1.43;;;2.20;1.00;;;;;;5033619;28;20430;-50
2023/04/02 05:41:39;;;;;;;4.00;1.10;;;2.20;1.00;;;;;;5033489;28;20799;-50
2023/04/02 05:44:26;;;;;;;2.03;1.07;;;2.30;1.00;;;;;;4982592;28;1460358;-50
2023/04/02 05:47:00;;;;;;;3.10;1.00;;;2.40;1.00;;;;;;5034092;28;20201;-50
2023/04/02 05:49:38;;;;;;;1.63;1.23;;;2.40;1.00;;;;;;5034000;28;20956;-50
2023/04/02 05:52:08;;;;;;;3.97;1.03;;;2.50;1.00;;;;;;5034098;28;20402;-50
2023/04/02 05:54:42;;;;;;;3.33;1.13;;;2.60;1.00;;;;;;5034172;28;20430;-51
2023/04/02 05:57:19;;;;;;;4.43;1.20;;;2.60;1.00;;;;;;5034476;28;20422;-50
2023/04/02 05:59:54;;;;;;;2.90;1.20;;;2.70;1.00;;;;;;5034333;28;20742;-50
2023/04/02 06:02:30;;;;;;;6.23;1.50;;;2.80;1.00;;;;;;5034046;28;20431;-50
2023/04/02 06:05:17;;;;;;;4.03;1.30;;;3.00;1.00;;;;;;5033835;28;20442;-50
2023/04/02 06:08:02;;;;;;;4.50;1.10;;;3.00;1.00;;;;;;5034034;28;20495;-51
2023/04/02 06:10:31;;;;;;;3.30;1.30;;;3.10;1.00;;;;;;5033599;28;20402;-50
2023/04/02 06:13:04;;;;;;;4.83;1.30;;;3.10;1.00;;;;;;5034041;28;20414;-50
2023/04/02 06:15:32;;;;;;;2.80;1.10;;;3.10;1.00;;;;;;5033833;28;20479;-50
2023/04/02 06:18:08;;;;;;;1.83;1.10;;;3.20;1.00;;;;;;5033730;28;20488;-50
2023/04/02 06:20:34;;;;;;;1.73;1.10;;;3.40;1.00;;;;;;5033742;28;20489;-53
2023/04/02 06:23:18;;;;;;;3.23;1.27;;;3.40;1.00;;;;;;5033850;28;20420;-50
2023/04/02 06:25:49;;;;;;;5.13;1.47;;;3.40;1.00;;;;;;5033840;28;20451;-50
2023/04/02 06:28:21;;;;;;;3.47;1.40;;;3.60;1.00;;;;;;5033850;28;20538;-50
2023/04/02 06:30:48;;;;;;;2.93;1.20;;;3.60;1.00;;;;;;5033094;28;20398;-50
2023/04/02 06:33:14;;;;;;;5.53;1.20;;;3.80;1.00;;;;;;5033568;28;20425;-50
2023/04/02 06:35:41;;;;;;;1.87;1.00;;;4.10;1.00;;;;;;5033288;28;20436;-50
2023/04/02 06:38:16;;;;;;;2.03;0.90;;;4.40;1.00;;;;;;5033323;28;20423;-51
2023/04/02 06:40:50;;;;;;;2.20;1.10;;;4.70;1.00;;;;;;5033330;28;20922;-50
2023/04/02 06:43:34;;;;;;;1.40;0.90;;;5.10;1.00;;;;;;5033186;28;20440;-50
2023/04/02 06:46:06;;;;;;;4.00;1.33;;;5.50;1.00;;;;;;5033399;28;20479;-50
2023/04/02 06:48:34;;;;;;;4.83;1.10;;;5.80;1.00;;;;;;5033441;28;20486;-50
2023/04/02 06:51:06;;;;;;;2.10;1.10;;;6.10;1.00;;;;;;5033535;28;20850;-50
2023/04/02 06:53:34;;;;;;;4.43;1.33;;;6.10;1.00;;;;;;5032914;28;20416;-50
2023/04/02 06:56:03;;;;;;;4.73;1.00;;;6.20;1.00;;;;;;5033130;28;20849;-50
2023/04/02 06:58:28;;;;;;;1.77;1.10;;;6.30;1.00;;;;;;5033434;28;20500;-50
2023/04/02 07:00:54;;;;;;;2.50;1.23;;;6.30;1.00;;;;;;5032882;28;20894;-50
2023/04/02 07:03:26;;;;;;;1.63;0.97;;;6.50;1.00;;;;;;5032988;28;20193;-51
2023/04/02 07:05:52;;;;;;;1.93;1.27;;;6.80;1.00;;;;;;5033089;28;20452;-51
2023/04/02 07:08:18;;;;;;;5.13;1.00;;;7.20;1.00;;;;;;5031438;28;20491;-50
2023/04/02 07:10:43;;;;;;;4.07;1.00;;;7.30;1.00;;;;;;5031320;28;20515;-50
2023/04/02 07:13:19;;;;;;;2.00;0.90;;;7.30;1.00;;;;;;5033076;28;20428;-50
2023/04/02 07:15:47;;;;;;;7.13;1.10;;;7.30;1.00;;;;;;5033290;28;20273;-50
2023/04/02 07:18:22;;;;;;;3.80;1.00;;;7.30;1.00;;;;;;5032797;28;20421;-50
2023/04/02 07:20:48;;;;;;;8.40;1.20;;;7.30;1.00;;;;;;5034580;28;20415;-50
2023/04/02 07:23:13;;;;;;;3.33;1.40;;;7.60;1.00;;;;;;5037040;28;20421;-51
2023/04/02 07:25:39;;;;;;;1.93;1.03;;;8.00;1.00;;;;;;5036393;28;20686;-50
2023/04/02 07:28:05;;;;;;;3.73;1.00;;;8.40;1.00;;;;;;5036617;28;20174;-50
2023/04/02 07:30:30;;;;;;;2.63;0.80;;;8.50;1.00;;;;;;5036843;28;20245;-50
2023/04/02 07:32:56;;;;;;;2.43;0.93;;;8.20;1.00;;;;;;5037032;28;20190;-50
2023/04/02 07:35:22;;;;;;;5.20;1.20;;;7.70;1.00;;;;;;5036464;28;20718;-49
2023/04/02 07:37:47;;;;;;;3.57;1.10;;;7.50;1.00;;;;;;5036556;28;20186;-50
2023/04/02 07:40:19;;;;;;;1.67;1.10;;;7.60;1.00;;;;;;5036703;28;20189;-50
2023/04/02 07:42:45;;;;;;;4.07;1.00;;;7.60;1.00;;;;;;5036227;28;20186;-50
2023/04/02 07:45:11;;;;;;;1.53;0.93;;;7.70;1.00;;;;;;5036044;28;20488;-50
2023/04/02 07:47:37;;;;;;;2.47;0.80;;;8.00;1.00;;;;;;5036363;28;20452;-50
2023/04/02 07:50:04;;;;;;;5.70;1.13;;;8.60;1.00;;;;;;5036614;28;20444;-50
2023/04/02 07:52:30;;;;;;;3.10;0.93;;;9.00;1.00;;;;;;5036106;28;20432;-50
2023/04/02 07:54:55;;;;;;;2.20;1.10;;;9.40;1.00;;;;;;5036291;28;20421;-50
2023/04/02 07:57:21;;;;;;;2.10;1.00;;;9.60;1.00;;;;;;5036129;28;20517;-50
2023/04/02 07:59:47;;;;;;;5.70;1.00;;;9.40;1.00;;;;;;5036128;28;20646;-50
2023/04/02 08:02:20;;;;;;;2.20;0.93;;;8.80;1.00;;;;;;5034746;28;20662;-49
2023/04/02 08:04:48;;;;;;;2.83;1.37;;;8.80;1.00;;;;;;5036334;28;20221;-51
2023/04/02 08:07:13;;;;;;;3.17;0.90;;;9.00;1.00;;;;;;5036018;28;20485;-50
2023/04/02 08:09:39;;;;;;;9.30;1.17;;;8.80;1.00;;;;;;5036023;28;20441;-50
2023/04/02 08:12:05;;;;;;;3.57;1.10;;;8.30;1.00;;;;;;5036257;28;20642;-50
2023/04/02 08:14:30;;;;;;;3.30;0.93;;;7.80;1.00;;;;;;5036383;28;20642;-51
2023/04/02 08:16:56;;;;;;;7.50;1.00;;;7.30;1.00;;;;;;5035901;28;20197;-50
2023/04/02 08:19:22;;;;;;;1.57;0.87;;;7.00;1.00;;;;;;5035947;28;20197;-50
2023/04/02 08:21:50;;;;;;;4.70;1.17;;;7.10;1.00;;;;;;5035787;28;20185;-50
2023/04/02 08:24:20;;;;;;;1.87;0.90;;;6.80;1.00;;;;;;5036055;28;20192;-50
2023/04/02 08:26:48;;;;;;;6.63;1.30;;;6.80;1.00;;;;;;5035719;28;20437;-50
2023/04/02 08:29:14;;;;;;;9.70;1.10;;;6.70;1.00;;;;;;5036131;28;20424;-50
2023/04/02 08:31:39;;;;;;;2.00;0.87;;;6.60;1.00;;;;;;5036021;28;20884;-51
2023/04/02 08:34:05;;;;;;;3.63;1.13;;;6.40;1.00;;;;;;5035606;28;20476;-50
2023/04/02 08:36:37;;;;;;;3.30;1.30;;;6.80;1.00;;;;;;5035709;28;20232;-50
2023/04/02 08:39:05;;;;;;;4.47;1.20;;;7.80;1.00;;;;;;5035960;28;20186;-50
2023/04/02 08:41:52;;;;;;;1.77;1.10;;;9.00;1.00;;;;;;5035459;28;20943;-50
2023/04/02 08:44:39;;;;;;;4.30;0.90;;;10.00;1.00;;;;;;5035177;28;20511;-50
2023/04/02 08:47:08;;;;;;;4.03;1.07;;;11.00;1.00;;;;;;5035788;28;20423;-50
2023/04/02 08:49:53;;;;;;;1.97;1.07;;;12.00;1.00;;;;;;5035444;28;20420;-50
2023/04/02 08:52:31;;;;;;;6.27;1.20;;;12.60;1.00;;;;;;5035474;28;20417;-50
2023/04/02 08:54:59;;;;;;;1.03;0.87;;;12.80;1.00;;;;;;5034997;28;20409;-51
2023/04/02 08:57:36;;;;;;;3.03;1.00;;;12.90;1.00;;;;;;5035370;28;20427;-51
2023/04/02 09:00:20;;;;;;;4.30;1.07;;;12.80;1.00;;;;;;5033695;28;20453;-51
2023/04/02 09:03:01;;;;;;;2.30;1.10;;;12.50;1.00;;;;;;5035475;28;20413;-51
2023/04/02 09:05:32;;;;;;;1.50;0.90;;;12.10;1.00;;;;;;5035052;28;20491;-51
2023/04/02 09:08:01;;;;;;;5.67;1.10;;;11.20;1.00;;;;;;5034786;28;20786;-52
2023/04/02 09:10:52;;;;;;;4.33;1.03;;;10.60;1.00;;;;;;5035059;28;20460;-50
2023/04/02 09:13:24;;;;;;;5.80;1.20;;;10.20;1.00;;;;;;5035102;28;20412;-51
2023/04/02 09:16:11;;;;;;;4.30;1.10;;;10.50;1.00;;;;;;5035071;28;20496;-50
2023/04/02 09:18:38;;;;;;;3.53;1.00;;;10.50;1.00;;;;;;5034511;28;20814;-50
2023/04/02 09:21:30;;;;;;;5.90;1.00;;;10.60;1.00;;;;;;5034341;28;20917;-50
2023/04/02 09:23:56;;;;;;;4.50;0.93;;;11.00;1.00;;;;;;5035053;28;20405;-51
2023/04/02 09:26:26;;;;;;;3.23;1.10;;;11.50;1.00;;;;;;5034348;28;20944;-51
2023/04/02 09:28:58;;;;;;;2.13;1.00;;;11.60;1.00;;;;;;5034206;28;20444;-52
2023/04/02 09:31:36;;;;;;;3.33;0.90;;;11.90;1.00;;;;;;5034465;28;20409;-52
2023/04/02 09:34:26;;;;;;;7.13;1.20;;;11.90;1.00;;;;;;5034527;28;20409;-52
2023/04/02 09:36:51;;;;;;;2.47;0.90;;;11.90;1.00;;;;;;5034587;28;20427;-52
2023/04/02 09:39:20;;;;;;;1.27;0.80;;;11.80;1.00;;;;;;5034225;28;20915;-52
2023/04/02 09:41:46;;;;;;;4.10;1.47;;;11.80;1.00;;;;;;5034312;28;20182;-51
2023/04/02 09:44:12;;;;;;;3.73;1.00;;;11.70;1.00;;;;;;5033203;28;20500;-51
2023/04/02 09:46:52;;;;;;;2.37;1.00;;;11.60;1.00;;;;;;5033853;28;20449;-52
2023/04/02 09:49:21;;;;;;;2.73;0.80;;;11.10;1.00;;;;;;5034241;28;20563;-51
2023/04/02 09:52:05;;;;;;;2.50;0.80;;;10.70;1.00;;;;;;5034169;28;20456;-52
2023/04/02 09:54:30;;;;;;;2.40;1.10;;;10.40;1.00;;;;;;5034159;28;20759;-51
2023/04/02 09:57:01;;;;;;;2.07;0.93;;;10.20;1.00;;;;;;5034062;28;20420;-51
2023/04/02 09:59:28;;;;;;;2.77;1.10;;;10.10;1.00;;;;;;5034019;28;20181;-51
2023/04/02 10:01:53;;;;;;;2.07;1.00;;;9.90;1.00;;;;;;5033868;28;20523;-51
2023/04/02 10:04:34;;;;;;;3.80;1.00;;;9.80;1.00;;;;;;5033841;28;20872;-51
2023/04/02 10:07:01;;;;;;;1.67;0.90;;;10.00;1.00;;;;;;5033937;28;20203;-52
2023/04/02 10:09:29;;;;;;;2.13;0.90;;;10.00;1.00;;;;;;5034075;28;20422;-51
2023/04/02 10:11:57;;;;;;;6.47;1.00;;;10.20;1.00;;;;;;5033911;28;20444;-51
2023/04/02 10:14:49;;;;;;;2.77;0.83;;;10.20;1.00;;;;;;5033393;28;20428;-51
2023/04/02 10:17:27;;;;;;;3.40;0.90;;;10.00;1.00;;;;;;5033043;28;20489;-51
2023/04/02 10:19:57;;;;;;;1.77;0.90;;;10.00;1.00;;;;;;5033791;28;20420;-51
2023/04/02 10:22:23;;;;;;;2.20;1.00;;;10.00;1.00;;;;;;5033627;28;20964;-51
2023/04/02 10:24:50;;;;;;;3.60;1.10;;;10.30;1.00;;;;;;5033826;28;20551;-51
2023/04/02 10:27:28;;;;;;;1.67;1.00;;;10.50;1.00;;;;;;5033988;28;20186;-50
2023/04/02 10:30:15;;;;;;;1.70;0.83;;;10.60;1.00;;;;;;5033656;28;20878;-51
2023/04/02 10:32:59;;;;;;;3.17;1.10;;;11.00;1.00;;;;;;5033423;28;20878;-51
2023/04/02 10:35:54;;;;;;;2.87;1.20;;;11.20;1.00;;;;;;5033913;28;20402;-51
2023/04/02 10:38:25;;;;;;;3.83;1.10;;;11.10;1.00;;;;;;5033414;28;20424;-52
2023/04/02 10:41:23;;;;;;;3.33;0.87;;;11.10;1.00;;;;;;5033456;28;20417;-52
2023/04/02 10:44:02;;;;;;;3.23;1.00;;;11.50;1.00;;;;;;5033192;28;20405;-50
2023/04/02 10:46:35;;;;;;;3.00;1.10;;;11.70;1.00;;;;;;5033209;28;20459;-49
2023/04/02 10:49:38;;;;;;;1.60;1.27;;;12.20;1.00;;;;;;5033291;28;20947;-50
2023/04/02 10:52:07;;;;;;;1.80;0.90;;;13.00;1.00;;;;;;5033655;28;20416;-50
2023/04/02 10:54:46;;;;;;;2.60;1.30;;;13.50;1.00;;;;;;5033449;28;20816;-50
2023/04/02 10:57:35;;;;;;;2.30;1.07;;;13.80;1.00;;;;;;5037125;28;20416;-51
2023/04/02 11:00:10;;;;;;;2.60;0.80;;;13.80;1.00;;;;;;5037380;28;20829;-51
2023/04/02 11:03:12;;;;;;;1.70;1.03;;;14.10;1.00;;;;;;5037442;28;20962;-52
2023/04/02 11:05:55;;;;;;;1.67;0.80;;;14.00;1.00;;;;;;5037302;28;20463;-52
2023/04/02 11:08:28;;;;;;;1.50;0.80;;;14.40;1.00;;;;;;5037000;28;20420;-52
2023/04/02 11:11:12;;;;;;;2.80;0.93;;;14.40;1.00;;;;;;5036386;28;20416;-53
2023/04/02 11:13:55;;;;;;;3.40;1.07;;;14.30;1.00;;;;;;5036912;28;20412;-54
2023/04/02 11:16:22;;;;;;;4.57;1.10;;;14.80;1.00;;;;;;5036444;28;21015;-53
2023/04/02 11:19:09;;;;;;;2.20;1.20;;;15.20;1.00;;;;;;5036680;28;20440;-53
2023/04/02 11:21:39;;;;;;;1.97;1.03;;;15.50;1.00;;;;;;5036520;28;20429;-52
2023/04/02 11:24:21;;;;;;;2.73;0.90;;;14.80;1.00;;;;;;5036242;28;20457;-52
2023/04/02 11:26:47;;;;;;;3.10;1.10;;;15.20;1.00;;;;;;5036218;28;21045;-52
2023/04/02 11:29:18;;;;;;;1.90;1.20;;;16.00;1.00;;;;;;5036354;28;20429;-53
2023/04/02 11:31:45;;;;;;;1.30;0.90;;;16.20;1.00;;;;;;5036793;28;20510;-53
2023/04/02 11:34:44;;;;;;;2.07;0.83;;;16.30;1.00;;;;;;5036437;28;20421;-53
2023/04/02 11:37:41;;;;;;;2.93;0.97;;;16.50;1.00;;;;;;5036092;28;20437;-53
2023/04/02 11:40:10;;;;;;;1.93;0.80;;;16.00;1.00;;;;;;5033694;28;20449;-53
2023/04/02 11:42:39;;;;;;;1.47;0.90;;;16.40;1.00;;;;;;5036197;28;20483;-54
2023/04/02 11:45:20;;;;;;;2.50;1.07;;;17.00;1.00;;;;;;5035908;28;20480;-53
2023/04/02 11:48:00;;;;;;;1.30;1.00;;;17.40;1.00;;;;;;5036207;28;20428;-53
2023/04/02 11:50:36;;;;;;;1.47;0.90;;;17.40;1.00;;;;;;5036164;28;20424;-53
2023/04/02 11:53:11;;;;;;;3.97;1.00;;;17.40;1.00;;;;;;5036084;28;20464;-53
2023/04/02 11:55:44;;;;;;;3.50;1.47;;;17.20;1.00;;;;;;5035807;28;20431;-53
2023/04/02 11:58:22;;;;;;;8.90;1.10;;;17.00;1.00;;;;;;5035949;28;20512;-53
2023/04/02 12:01:13;;;;;;;3.23;0.87;;;16.20;1.00;;;;;;5035525;28;20942;-53
2023/04/02 12:03:48;;;;;;;3.40;1.20;;;15.50;1.00;;;;;;5035961;28;20462;-53
2023/04/02 12:06:41;;;;;;;3.93;1.00;;;15.60;1.00;;;;;;5035157;28;20491;-53
2023/04/02 12:09:26;;;;;;;2.67;1.20;;;16.30;1.00;;;;;;5034816;28;20433;-54
2023/04/02 12:11:55;;;;;;;3.63;1.20;;;16.70;1.00;;;;;;5035785;28;20416;-53
2023/04/02 12:14:49;;;;;;;3.40;1.13;;;16.70;1.00;;;;;;5035545;28;20432;-56
2023/04/02 12:17:29;;;;;;;1.43;1.10;;;16.40;1.00;;;;;;5035621;28;20898;-53
2023/04/02 12:20:20;;;;;;;2.83;1.00;;;16.60;1.00;;;;;;5035721;28;20746;-53
2023/04/02 12:22:52;;;;;;;3.37;1.20;;;16.70;1.00;;;;;;5035561;28;20431;-52
2023/04/02 12:25:25;;;;;;;3.03;0.90;;;16.50;1.00;;;;;;5035286;28;20457;-53
2023/04/02 12:28:16;;;;;;;3.47;1.00;;;16.90;1.00;;;;;;5035129;28;20401;-53
2023/04/02 12:30:43;;;;;;;3.70;1.37;;;17.30;1.00;;;;;;5035496;28;20406;-54
2023/04/02 12:33:15;;;;;;;2.70;0.97;;;17.30;1.00;;;;;;5035192;28;20928;-52
2023/04/02 12:35:42;;;;;;;1.43;1.10;;;17.00;1.00;;;;;;5035461;28;20428;-52
2023/04/02 12:38:28;;;;;;;5.13;1.20;;;16.70;1.00;;;;;;5035171;28;20464;-53
2023/04/02 12:40:59;;;;;;;1.97;0.80;;;16.50;1.00;;;;;;5034760;28;20917;-53
2023/04/02 12:43:25;;;;;;;1.33;0.83;;;16.60;1.00;;;;;;5035169;28;20490;-53
2023/04/02 12:45:56;;;;;;;1.93;0.90;;;16.50;1.00;;;;;;5034540;28;20484;-53
2023/04/02 12:48:23;;;;;;;4.07;0.93;;;16.20;1.00;;;;;;5034671;28;20423;-54
2023/04/02 12:50:49;;;;;;;1.10;0.80;;;16.20;1.00;;;;;;5034917;28;20424;-53
2023/04/02 12:53:35;;;;;;;1.50;0.90;;;16.40;1.00;;;;;;5034772;28;20508;-53
2023/04/02 12:56:02;;;;;;;1.13;0.80;;;16.40;1.00;;;;;;5034964;28;20409;-53
2023/04/02 12:58:40;;;;;;;2.50;0.87;;;16.20;1.00;;;;;;5034834;28;21113;-53
2023/04/02 13:01:17;;;;;;;1.47;1.00;;;16.00;1.00;;;;;;5034641;28;20426;-53
2023/04/02 13:03:57;;;;;;;1.47;0.80;;;16.30;1.00;;;;;;5034300;28;20550;-53
2023/04/02 13:06:25;;;;;;;1.73;0.90;;;16.60;1.00;;;;;;5034303;28;20468;-52
2023/04/02 13:08:50;;;;;;;2.63;1.03;;;16.40;1.00;;;;;;5034487;28;20409;-53
2023/04/02 13:11:16;;;;;;;1.40;0.90;;;15.70;1.00;;;;;;5034570;28;20562;-53
2023/04/02 13:13:44;;;;;;;3.03;1.10;;;15.50;1.00;;;;;;5034390;28;20182;-53
2023/04/02 13:16:16;;;;;;;5.90;0.90;;;15.10;1.00;;;;;;5033996;28;20192;-52
2023/04/02 13:18:44;;;;;;;1.00;0.73;;;15.30;1.00;;;;;;5033344;28;20944;-52
2023/04/02 13:21:15;;;;;;;2.40;1.10;;;15.70;1.00;;;;;;5034391;28;20472;-53
2023/04/02 13:23:42;;;;;;;1.40;0.90;;;16.10;1.00;;;;;;5034481;28;20417;-52
2023/04/02 13:26:11;;;;;;;1.43;1.00;;;16.00;1.00;;;;;;5034206;28;20500;-52
2023/04/02 13:28:37;;;;;;;1.50;0.80;;;15.60;1.00;;;;;;5034290;28;20421;-52
2023/04/02 13:31:03;;;;;;;4.80;1.00;;;15.90;1.00;;;;;;5033941;28;20441;-52
2023/04/02 13:33:28;;;;;;;3.57;1.00;;;15.70;1.00;;;;;;5034152;28;20913;-52
2023/04/02 13:35:54;;;;;;;1.47;0.90;;;15.70;1.00;;;;;;5034187;28;20193;-52
2023/04/02 13:38:20;;;;;;;2.10;1.00;;;15.80;1.00;;;;;;5034232;28;20537;-51
2023/04/02 13:40:46;;;;;;;2.00;0.90;;;15.90;1.00;;;;;;5034063;28;20190;-52
2023/04/02 13:43:19;;;;;;;1.40;1.00;;;15.40;1.00;;;;;;5034071;28;20416;-53
2023/04/02 13:45:50;;;;;;;2.77;1.00;;;14.80;1.00;;;;;;5033644;28;20242;-52